Time;durP1;ratioP1;P1;durP2;ratioP2;P2;SDS_P1;SDS_P2;PMS_P1;PMS_P2;Temp;Humidity;BMP_temperature;BMP_pressure;BME280_temperature;BME280_humidity;BME280_pressure;Samples;Min_cycle;Max_cycle;Signal;HPM_P1;HPM_P2
2024/01/01 00:00:54;;;;;;;25.80;6.45;;;;;;;8.15;100.00;99959.56;5270442;28;20031;-76
2024/01/01 00:03:24;;;;;;;16.88;5.57;;;;;;;8.09;100.00;99955.72;5269010;28;20027;-76
2024/01/01 00:05:55;;;;;;;26.00;5.28;;;;;;;8.11;100.00;99974.25;5270630;28;20032;-76
2024/01/01 00:08:25;;;;;;;31.27;5.78;;;;;;;8.03;100.00;99961.72;5272499;28;20035;-76
2024/01/01 00:10:56;;;;;;;18.50;5.85;;;;;;;8.04;100.00;99963.44;5269773;28;20028;-76
2024/01/01 00:13:26;;;;;;;19.85;4.95;;;;;;;7.87;100.00;99959.94;5274815;28;20366;-76
2024/01/01 00:15:57;;;;;;;16.50;4.03;;;;;;;7.96;100.00;99948.25;5271545;28;20111;-76
2024/01/01 00:18:27;;;;;;;18.77;4.25;;;;;;;7.91;100.00;99955.09;5273992;28;20077;-76
2024/01/01 00:20:58;;;;;;;16.25;3.53;;;;;;;7.91;100.00;99961.28;5272940;28;20028;-76
2024/01/01 00:23:29;;;;;;;21.23;4.05;;;;;;;8.02;100.00;99971.59;5275383;28;20027;-76
2024/01/01 00:25:59;;;;;;;21.38;3.92;;;;;;;7.96;100.00;99979.47;5276533;28;20503;-76
2024/01/01 00:28:30;;;;;;;19.95;3.92;;;;;;;7.97;100.00;99951.75;5277458;28;20034;-76
2024/01/01 00:31:00;;;;;;;17.25;3.88;;;;;;;7.93;100.00;99964.63;5271616;28;20108;-76
2024/01/01 00:33:31;;;;;;;25.17;4.57;;;;;;;8.04;100.00;99961.59;5277463;27;20034;-76
2024/01/01 00:36:01;;;;;;;23.15;4.03;;;;;;;7.93;100.00;99953.09;5268631;28;20028;-76
2024/01/01 00:38:32;;;;;;;18.50;3.80;;;;;;;8.00;100.00;99967.44;5274236;28;20454;-76
2024/01/01 00:41:02;;;;;;;20.90;3.95;;;;;;;7.95;100.00;99949.25;5271047;28;20035;-76
2024/01/01 00:43:34;;;;;;;23.48;4.40;;;;;;;7.98;100.00;99948.91;5270085;27;20054;-76
2024/01/01 00:46:05;;;;;;;32.15;4.00;;;;;;;7.98;100.00;99948.91;5272229;28;20031;-76
2024/01/01 00:48:35;;;;;;;21.40;4.32;;;;;;;7.96;100.00;99942.91;5273904;27;20028;-76
2024/01/01 00:51:06;;;;;;;21.75;4.38;;;;;;;8.06;100.00;99945.38;5270628;28;20030;-76
2024/01/01 00:53:37;;;;;;;21.35;3.45;;;;;;;7.99;100.00;99939.91;5273915;28;20027;-76
2024/01/01 00:56:08;;;;;;;19.50;3.90;;;;;;;7.94;100.00;99930.75;5275080;28;20028;-76
2024/01/01 00:58:38;;;;;;;17.33;3.30;;;;;;;8.05;100.00;99930.38;5271727;28;20529;-76
2024/01/01 01:01:09;;;;;;;16.63;3.00;;;;;;;8.04;100.00;99942.88;5269046;28;20048;-76
2024/01/01 01:03:39;;;;;;;12.93;2.72;;;;;;;7.98;100.00;99946.25;5270007;28;20420;-76
2024/01/01 01:06:10;;;;;;;20.42;2.85;;;;;;;8.05;100.00;99936.53;5267189;28;20035;-76
2024/01/01 01:08:40;;;;;;;25.17;3.45;;;;;;;8.10;100.00;99941.38;5272621;28;20359;-76
2024/01/01 01:11:11;;;;;;;17.77;3.60;;;;;;;8.22;100.00;99944.47;5270978;28;20020;-76
2024/01/01 01:13:41;;;;;;;21.42;3.30;;;;;;;8.22;100.00;99939.97;5273361;27;20032;-76
2024/01/01 01:16:12;;;;;;;18.50;3.20;;;;;;;8.16;100.00;99942.50;5271113;28;20034;-76
2024/01/01 01:18:42;;;;;;;17.42;2.40;;;;;;;8.25;100.00;99941.47;5269462;28;20817;-76
2024/01/01 01:21:13;;;;;;;16.85;3.08;;;;;;;8.26;100.00;99948.47;5268016;28;20130;-76
2024/01/01 01:23:43;;;;;;;17.77;2.78;;;;;;;8.26;100.00;99941.28;5270720;28;20019;-76
2024/01/01 01:26:14;;;;;;;26.48;3.63;;;;;;;8.22;100.00;99947.16;5274953;28;20045;-76
2024/01/01 01:28:44;;;;;;;30.90;4.25;;;;;;;8.22;100.00;99963.19;5270566;28;20024;-76
2024/01/01 01:31:15;;;;;;;19.20;2.53;;;;;;;8.23;100.00;99963.03;5265516;28;20053;-76
2024/01/01 01:33:45;;;;;;;20.92;3.67;;;;;;;8.20;100.00;99950.00;5267707;28;20036;-76
2024/01/01 01:36:16;;;;;;;21.02;3.05;;;;;;;8.34;100.00;99955.66;5269709;28;20024;-76
2024/01/01 01:38:46;;;;;;;18.60;3.13;;;;;;;8.23;100.00;99964.84;5266830;28;20501;-76
2024/01/01 01:41:17;;;;;;;26.27;2.92;;;;;;;8.14;100.00;99941.84;5265500;28;20152;-75
2024/01/01 01:43:47;;;;;;;27.60;3.25;;;;;;;8.26;100.00;99960.00;5266760;28;20020;-76
2024/01/01 01:46:17;;;;;;;19.73;3.03;;;;;;;8.23;100.00;99957.69;5270209;28;20040;-76
2024/01/01 01:48:48;;;;;;;20.98;2.75;;;;;;;8.18;100.00;99961.84;5268677;28;20031;-76
2024/01/01 01:51:19;;;;;;;23.15;3.15;;;;;;;8.20;100.00;99958.03;5273676;28;20032;-76
2024/01/01 01:53:50;;;;;;;25.85;3.03;;;;;;;8.27;100.00;99955.47;5272398;28;20020;-76
2024/01/01 01:56:21;;;;;;;23.95;2.88;;;;;;;8.24;100.00;99963.88;5274039;28;20039;-76
2024/01/01 01:58:51;;;;;;;11.23;2.05;;;;;;;8.36;100.00;99957.16;5267071;28;20036;-77
2024/01/01 02:01:22;;;;;;;21.75;3.80;;;;;;;8.26;100.00;99959.16;5273017;28;20027;-76
2024/01/01 02:03:52;;;;;;;22.42;2.72;;;;;;;8.37;100.00;99961.50;5270573;28;20019;-76
2024/01/01 02:06:23;;;;;;;19.50;2.97;;;;;;;8.31;100.00;99957.63;5273175;28;20031;-76
2024/01/01 02:08:54;;;;;;;20.33;3.72;;;;;;;8.20;100.00;99962.53;5269495;28;20385;-75
2024/01/01 02:11:25;;;;;;;15.20;2.63;;;;;;;8.22;100.00;99963.19;5269741;28;20035;-76
2024/01/01 02:14:08;;;;;;;19.55;3.35;;;;;;;8.26;100.00;99973.34;5264544;28;20620;-75
2024/01/01 02:16:39;;;;;;;17.52;3.42;;;;;;;8.41;100.00;99973.50;5265751;28;20036;-76
2024/01/01 02:19:19;;;;;;;18.88;2.67;;;;;;;8.33;100.00;99978.84;5267031;28;20695;-75
2024/01/01 02:21:52;;;;;;;19.63;3.03;;;;;;;8.30;100.00;99958.66;5271671;27;20027;-76
2024/01/01 02:24:22;;;;;;;16.50;3.30;;;;;;;8.41;100.00;99967.31;5274602;28;20537;-76
2024/01/01 02:26:53;;;;;;;21.13;2.60;;;;;;;8.38;100.00;99965.81;5266179;28;20024;-75
2024/01/01 02:29:24;;;;;;;15.90;2.67;;;;;;;8.25;100.00;99958.34;5271646;28;20151;-76
2024/01/01 02:31:54;;;;;;;17.33;3.40;;;;;;;8.30;100.00;99966.66;5271454;28;20027;-75
2024/01/01 02:34:26;;;;;;;23.38;2.67;;;;;;;8.24;100.00;99963.88;5271497;28;20028;-75
2024/01/01 02:36:57;;;;;;;20.02;4.25;;;;;;;8.32;100.00;99974.50;5269196;28;20032;-75
2024/01/01 02:39:27;;;;;;;24.80;3.63;;;;;;;8.35;100.00;99974.16;5269149;28;20076;-75
2024/01/01 02:41:58;;;;;;;21.08;2.47;;;;;;;8.35;100.00;99978.69;5268781;28;20028;-75
2024/01/01 02:44:28;;;;;;;17.00;3.08;;;;;;;8.29;100.00;99977.53;5271685;28;20464;-75
2024/01/01 02:46:59;;;;;;;14.52;3.00;;;;;;;8.23;100.00;99971.06;5270063;28;20378;-75
2024/01/01 02:49:30;;;;;;;26.23;2.65;;;;;;;8.35;100.00;99976.84;5270157;28;20023;-75
2024/01/01 02:52:01;;;;;;;11.75;2.20;;;;;;;8.38;100.00;99989.88;5270476;28;20063;-76
2024/01/01 02:54:31;;;;;;;12.73;2.60;;;;;;;8.32;100.00;99987.88;5268846;28;20104;-75
2024/01/01 02:57:02;;;;;;;18.42;3.55;;;;;;;8.37;100.00;99982.88;5271040;28;20028;-75
2024/01/01 02:59:33;;;;;;;15.05;2.72;;;;;;;8.36;100.00;99983.03;5274130;28;20432;-75
2024/01/01 03:02:04;;;;;;;20.15;2.78;;;;;;;8.20;100.00;99989.25;5267215;28;20362;-75
2024/01/01 03:04:35;;;;;;;13.25;2.08;;;;;;;8.29;100.00;100013.13;5270811;28;20117;-75
2024/01/01 03:07:07;;;;;;;17.15;3.28;;;;;;;8.27;100.00;100009.75;5267239;28;20024;-76
2024/01/01 03:09:38;;;;;;;15.27;2.65;;;;;;;8.29;100.00;100009.59;5270438;27;20174;-75
2024/01/01 03:12:09;;;;;;;19.95;2.88;;;;;;;8.31;100.00;100018.28;5275059;28;20023;-76
2024/01/01 03:14:39;;;;;;;19.58;2.38;;;;;;;8.30;100.00;100013.94;5274149;28;20066;-75
2024/01/01 03:17:10;;;;;;;18.38;3.38;;;;;;;8.36;100.00;100012.41;5276487;28;20450;-75
2024/01/01 03:19:41;;;;;;;18.13;2.17;;;;;;;8.30;100.00;100022.78;5271511;27;20023;-76
2024/01/01 03:22:12;;;;;;;17.45;2.47;;;;;;;8.21;100.00;100028.31;5270625;28;20024;-75
2024/01/01 03:24:42;;;;;;;12.30;2.70;;;;;;;8.21;100.00;100033.66;5273772;28;20036;-75
2024/01/01 03:27:13;;;;;;;18.45;2.83;;;;;;;8.27;100.00;100027.63;5272869;28;20016;-76
2024/01/01 03:29:44;;;;;;;15.75;2.53;;;;;;;8.28;100.00;100027.50;5273952;28;20497;-75
2024/01/01 03:32:14;;;;;;;12.82;2.25;;;;;;;8.28;100.00;100039.97;5273756;28;20504;-76
2024/01/01 03:34:45;;;;;;;15.40;2.28;;;;;;;8.20;100.00;100034.69;5271124;28;20028;-75
2024/01/01 03:37:15;;;;;;;20.17;2.78;;;;;;;8.35;100.00;100037.47;5275200;28;20008;-76
2024/01/01 03:39:46;;;;;;;20.05;2.90;;;;;;;8.23;100.00;100045.88;5270231;28;20027;-76
2024/01/01 03:42:16;;;;;;;21.25;2.55;;;;;;;8.28;100.00;100042.66;5275464;28;20066;-76
2024/01/01 03:44:47;;;;;;;9.55;1.90;;;;;;;8.23;100.00;100042.34;5272591;28;20016;-76
2024/01/01 03:47:17;;;;;;;17.70;2.70;;;;;;;8.09;100.00;100041.22;5272999;28;20020;-76
2024/01/01 03:49:48;;;;;;;16.77;2.42;;;;;;;8.10;100.00;100052.72;5272133;28;20024;-75
2024/01/01 03:52:18;;;;;;;26.70;3.40;;;;;;;8.10;100.00;100039.38;5271835;28;20077;-75
2024/01/01 03:54:49;;;;;;;14.63;2.42;;;;;;;8.26;100.00;100048.19;5272415;28;20024;-76
2024/01/01 03:57:19;;;;;;;12.70;2.20;;;;;;;8.19;100.00;100028.50;5271281;28;21356;-75
2024/01/01 03:59:50;;;;;;;19.00;2.80;;;;;;;8.21;100.00;100029.16;5271507;28;20024;-75
2024/01/01 04:02:20;;;;;;;16.67;2.47;;;;;;;8.18;100.00;100028.66;5273000;28;20036;-75
2024/01/01 04:04:52;;;;;;;15.73;2.22;;;;;;;8.27;100.00;100041.00;5267666;28;20111;-75
2024/01/01 04:07:22;;;;;;;22.90;2.88;;;;;;;8.17;100.00;100032.34;5274016;28;21073;-75
2024/01/01 04:09:53;;;;;;;18.50;2.55;;;;;;;8.16;100.00;100034.19;5269238;28;20020;-73
2024/01/01 04:12:23;;;;;;;15.85;2.55;;;;;;;8.29;100.00;100036.34;5271545;28;20422;-75
2024/01/01 04:14:54;;;;;;;10.68;2.17;;;;;;;8.24;100.00;100044.03;5268980;28;20024;-75
2024/01/01 04:17:24;;;;;;;14.65;2.25;;;;;;;8.27;100.00;100039.16;5274611;28;20068;-75
2024/01/01 04:19:55;;;;;;;22.25;2.53;;;;;;;8.31;100.00;100055.69;5271330;28;20031;-75
2024/01/01 04:22:25;;;;;;;12.93;2.25;;;;;;;8.32;100.00;100060.84;5272890;28;20426;-76
2024/01/01 04:24:56;;;;;;;14.25;2.20;;;;;;;8.12;100.00;100061.41;5271756;28;20038;-76
2024/01/01 04:27:26;;;;;;;16.95;2.55;;;;;;;8.23;100.00;100053.03;5269839;28;20390;-76
2024/01/01 04:29:57;;;;;;;21.23;2.75;;;;;;;7.93;100.00;100050.09;5251029;28;20063;-75
2024/01/01 04:32:27;;;;;;;18.15;3.05;;;;;;;8.14;100.00;100075.44;5274479;28;20042;-76
2024/01/01 04:34:58;;;;;;;18.30;3.38;;;;;;;7.96;100.00;100071.09;5268430;28;20024;-76
2024/01/01 04:37:28;;;;;;;14.65;2.35;;;;;;;8.01;100.00;100075.94;5274465;27;20012;-76
2024/01/01 04:39:59;;;;;;;12.90;2.30;;;;;;;7.91;100.00;100054.75;5265048;28;20024;-76
2024/01/01 04:42:29;;;;;;;23.17;3.72;;;;;;;7.84;100.00;100061.78;5273112;28;20024;-76
2024/01/01 04:45:00;;;;;;;17.92;2.97;;;;;;;7.66;100.00;100061.09;5268157;28;20032;-76
2024/01/01 04:47:30;;;;;;;15.07;2.35;;;;;;;7.52;100.00;100055.41;5264671;28;20139;-76
2024/01/01 04:50:01;;;;;;;14.52;3.13;;;;;;;7.61;100.00;100068.78;5268382;28;20020;-74
2024/01/01 04:52:32;;;;;;;17.55;2.47;;;;;;;7.57;100.00;100076.28;5274510;28;20435;-76
2024/01/01 04:55:02;;;;;;;14.25;2.35;;;;;;;7.47;100.00;100079.09;5272199;28;20396;-76
2024/01/01 04:57:33;;;;;;;17.45;3.03;;;;;;;7.51;100.00;100061.75;5270371;28;20024;-74
2024/01/01 05:00:04;;;;;;;21.45;2.83;;;;;;;7.61;100.00;100074.94;5269820;28;20034;-75
2024/01/01 05:02:35;;;;;;;14.70;2.50;;;;;;;7.78;100.00;100086.44;5271906;28;20028;-76
2024/01/01 05:05:08;;;;;;;13.95;1.85;;;;;;;7.74;100.00;100085.97;5269222;28;20030;-74
2024/01/01 05:07:38;;;;;;;12.40;1.95;;;;;;;7.83;100.00;100088.63;5271242;28;20418;-76
2024/01/01 05:10:09;;;;;;;21.95;2.78;;;;;;;7.72;100.00;100085.28;5270111;28;20039;-75
2024/01/01 05:12:41;;;;;;;11.18;2.33;;;;;;;7.74;100.00;100085.97;5271641;27;20102;-76
2024/01/01 05:15:12;;;;;;;9.40;2.55;;;;;;;7.79;100.00;100099.66;5270292;28;20077;-74
2024/01/01 05:17:42;;;;;;;10.10;1.88;;;;;;;7.73;100.00;100094.13;5272402;28;20029;-75
2024/01/01 05:20:13;;;;;;;11.65;2.10;;;;;;;7.79;100.00;100096.16;5268512;28;20027;-75
2024/01/01 05:22:43;;;;;;;18.63;2.58;;;;;;;7.77;100.00;100090.13;5269390;28;20439;-73
2024/01/01 05:25:14;;;;;;;11.45;2.00;;;;;;;7.79;100.00;100094.31;5272819;28;20073;-75
2024/01/01 05:27:44;;;;;;;16.80;2.22;;;;;;;7.75;100.00;100081.47;5269506;28;20508;-75
2024/01/01 05:30:15;;;;;;;19.10;2.25;;;;;;;7.73;100.00;100070.97;5268788;28;20020;-75
2024/01/01 05:32:46;;;;;;;20.08;2.30;;;;;;;7.80;100.00;100087.13;5268349;28;20055;-74
2024/01/01 05:35:16;;;;;;;18.17;2.83;;;;;;;7.82;100.00;100089.63;5270417;28;20513;-75
2024/01/01 05:37:47;;;;;;;15.60;2.00;;;;;;;7.83;100.00;100088.63;5269403;28;20024;-75
2024/01/01 05:40:17;;;;;;;12.02;1.92;;;;;;;7.79;100.00;100096.16;5268606;28;20453;-75
2024/01/01 05:42:48;;;;;;;7.28;1.70;;;;;;;7.80;100.00;100095.16;5270899;27;20036;-75
2024/01/01 05:45:18;;;;;;;15.40;2.33;;;;;;;7.74;100.00;100091.31;5271989;28;20031;-74
2024/01/01 05:47:49;;;;;;;13.75;2.13;;;;;;;7.73;100.00;100105.66;5268753;28;20024;-74
2024/01/01 05:50:19;;;;;;;17.83;1.95;;;;;;;7.67;100.00;100105.47;5271189;28;20020;-75
2024/01/01 05:52:49;;;;;;;14.27;2.30;;;;;;;7.71;100.00;100107.66;5268319;27;20023;-75
2024/01/01 05:55:20;;;;;;;12.63;2.33;;;;;;;7.74;100.00;100117.19;5272598;28;20027;-72
2024/01/01 05:57:50;;;;;;;16.08;2.10;;;;;;;7.87;100.00;100122.84;5268960;28;20374;-74
2024/01/01 06:00:21;;;;;;;13.98;2.13;;;;;;;7.92;100.00;100115.16;5265957;28;20030;-74
2024/01/01 06:02:51;;;;;;;14.35;2.03;;;;;;;7.87;100.00;100136.19;5264100;28;20016;-75
2024/01/01 06:05:22;;;;;;;19.02;5.05;;;;;;;7.88;100.00;100142.38;5269925;28;20102;-73
2024/01/01 06:07:53;;;;;;;11.13;2.05;;;;;;;7.89;100.00;100154.75;5262229;28;20020;-74
2024/01/01 06:10:23;;;;;;;36.30;13.25;;;;;;;7.91;100.00;100155.41;5269001;28;20034;-74
2024/01/01 06:12:54;;;;;;;11.38;2.67;;;;;;;8.04;100.00;100167.28;5269731;28;20690;-74
2024/01/01 06:15:27;;;;;;;11.45;2.55;;;;;;;7.99;100.00;100174.94;5269030;28;20023;-75
2024/01/01 06:17:57;;;;;;;19.38;2.10;;;;;;;7.81;100.00;100166.25;5269170;28;20077;-75
2024/01/01 06:20:28;;;;;;;14.73;1.88;;;;;;;7.88;100.00;100185.97;5270776;28;20035;-75
2024/01/01 06:22:58;;;;;;;10.52;1.88;;;;;;;7.81;100.00;100190.28;5266724;28;20097;-75
2024/01/01 06:25:29;;;;;;;12.35;2.08;;;;;;;7.83;100.00;100174.06;5269992;28;20027;-74
2024/01/01 06:27:59;;;;;;;17.17;2.20;;;;;;;7.79;100.00;100185.09;5260413;28;21919;-74
2024/01/01 06:30:33;;;;;;;11.15;2.00;;;;;;;7.78;100.00;100201.28;5255874;28;20058;-75
2024/01/01 06:33:04;;;;;;;12.45;3.03;;;;;;;7.75;100.00;100199.78;5261716;28;20436;-75
2024/01/01 06:35:35;;;;;;;20.77;4.88;;;;;;;7.77;100.00;100196.94;5262680;28;20055;-73
2024/01/01 06:38:06;;;;;;;10.70;2.42;;;;;;;7.75;100.00;100194.44;5266304;28;20028;-75
2024/01/01 06:40:37;;;;;;;15.85;2.10;;;;;;;7.78;100.00;100203.94;5261105;28;20107;-75
2024/01/01 06:43:08;;;;;;;14.27;3.38;;;;;;;7.74;100.00;100202.63;5255762;28;20051;-74
2024/01/01 06:45:39;;;;;;;21.55;2.38;;;;;;;7.79;100.00;100208.31;5258593;28;20393;-74
2024/01/01 06:48:11;;;;;;;7.93;2.22;;;;;;;7.86;100.00;100206.63;5260394;28;20032;-75
2024/01/01 06:50:42;;;;;;;18.02;2.47;;;;;;;8.00;100.00;100205.16;5261359;28;20079;-75
2024/01/01 06:53:12;;;;;;;15.07;2.47;;;;;;;7.85;100.00;100226.34;5266766;28;20069;-75
2024/01/01 06:55:43;;;;;;;14.70;1.95;;;;;;;7.77;100.00;100220.97;5263985;28;20020;-75
2024/01/01 06:58:13;;;;;;;11.52;2.55;;;;;;;7.79;100.00;100235.00;5259640;28;20065;-75
2024/01/01 07:00:44;;;;;;;12.98;2.20;;;;;;;7.88;100.00;100231.38;5264289;28;20388;-75
2024/01/01 07:03:15;;;;;;;11.65;2.10;;;;;;;7.91;100.00;100241.69;5269097;28;20103;-75
2024/01/01 07:05:45;;;;;;;9.70;1.80;;;;;;;7.90;100.00;100239.22;5265333;28;20408;-75
2024/01/01 07:08:16;;;;;;;17.52;4.57;;;;;;;8.00;100.00;100240.72;5261816;28;20025;-75
2024/01/01 07:10:48;;;;;;;21.10;4.03;;;;;;;7.88;100.00;100254.53;5266246;28;20070;-75
2024/01/01 07:13:18;;;;;;;22.52;4.60;;;;;;;7.74;100.00;100253.34;5261475;28;20023;-75
2024/01/01 07:15:49;;;;;;;20.45;6.35;;;;;;;7.87;100.00;100250.19;5262221;28;20481;-75
2024/01/01 07:18:20;;;;;;;17.90;3.92;;;;;;;7.87;100.00;100256.38;5260793;28;20721;-75
2024/01/01 07:20:51;;;;;;;18.90;2.97;;;;;;;7.80;100.00;100260.72;5261212;28;20093;-75
2024/01/01 07:23:22;;;;;;;18.50;3.33;;;;;;;7.86;100.00;100262.72;5267131;28;20059;-75
2024/01/01 07:25:52;;;;;;;10.98;2.25;;;;;;;7.86;100.00;100270.72;5256584;28;20035;-75
2024/01/01 07:28:25;;;;;;;9.45;2.40;;;;;;;7.87;100.00;100277.75;5266773;28;20063;-74
2024/01/01 07:30:57;;;;;;;12.65;1.98;;;;;;;7.89;100.00;100285.63;5263294;28;20027;-75
2024/01/01 07:33:27;;;;;;;14.30;2.10;;;;;;;7.88;100.00;100287.44;5261950;28;20108;-75
2024/01/01 07:35:58;;;;;;;10.90;1.98;;;;;;;7.93;100.00;100287.81;5262899;28;20086;-74
2024/01/01 07:38:28;;;;;;;12.63;2.03;;;;;;;7.84;100.00;100294.09;5265850;28;20008;-74
2024/01/01 07:40:59;;;;;;;13.95;2.50;;;;;;;7.93;100.00;100303.81;5261611;28;20035;-74
2024/01/01 07:43:29;;;;;;;21.13;2.70;;;;;;;8.01;100.00;100306.50;5264363;28;20020;-75
2024/01/01 07:46:00;;;;;;;17.13;2.25;;;;;;;7.97;100.00;100309.66;5264789;28;20036;-74
2024/01/01 07:48:30;;;;;;;12.48;1.75;;;;;;;7.94;100.00;100310.84;5261069;28;20024;-74
2024/01/01 07:51:01;;;;;;;16.20;2.67;;;;;;;7.97;100.00;100282.94;5263319;28;20036;-75
2024/01/01 07:53:32;;;;;;;15.15;2.10;;;;;;;7.94;100.00;100310.00;5263326;28;20028;-75
2024/01/01 07:56:04;;;;;;;17.60;2.88;;;;;;;7.86;100.00;100313.47;5262509;28;20067;-74
2024/01/01 07:58:35;;;;;;;10.27;1.80;;;;;;;7.83;100.00;100319.16;5267179;28;20016;-74
2024/01/01 08:01:06;;;;;;;14.30;2.05;;;;;;;7.96;100.00;100330.19;5264394;28;20058;-74
2024/01/01 08:03:37;;;;;;;10.82;2.35;;;;;;;7.86;100.00;100329.50;5273950;28;20028;-73
2024/01/01 08:06:07;;;;;;;18.13;3.63;;;;;;;7.92;100.00;100330.69;5264957;28;20031;-74
2024/01/01 08:08:38;;;;;;;18.35;2.92;;;;;;;7.89;100.00;100345.19;5265719;28;20055;-74
2024/01/01 08:11:08;;;;;;;15.43;2.00;;;;;;;7.84;100.00;100336.84;5265283;28;20111;-74
2024/01/01 08:13:39;;;;;;;26.88;7.72;;;;;;;7.88;100.00;100346.22;5265730;28;20039;-74
2024/01/01 08:16:09;;;;;;;10.93;2.50;;;;;;;7.88;100.00;100335.53;5264361;28;20024;-75
2024/01/01 08:18:40;;;;;;;41.03;17.30;;;;;;;7.83;100.00;100334.31;5266980;28;20080;-75
2024/01/01 08:21:11;;;;;;;20.63;4.50;;;;;;;7.82;100.00;100346.00;5263297;28;20028;-74
2024/01/01 08:23:42;;;;;;;20.63;6.47;;;;;;;7.81;100.00;100355.00;5268888;28;20087;-74
2024/01/01 08:26:13;;;;;;;16.30;2.83;;;;;;;7.89;100.00;100360.41;5266429;28;20157;-74
2024/01/01 08:28:46;;;;;;;10.35;1.90;;;;;;;7.89;100.00;100360.41;5249751;28;20032;-74
2024/01/01 08:31:20;;;;;;;8.95;2.17;;;;;;;7.92;100.00;100373.41;5267203;28;20032;-75
2024/01/01 08:33:50;;;;;;;16.02;3.20;;;;;;;7.83;100.00;100393.06;5270599;28;20388;-74
2024/01/01 08:36:21;;;;;;;16.73;2.65;;;;;;;7.92;100.00;100384.09;5268705;28;20118;-75
2024/01/01 08:38:52;;;;;;;16.90;2.15;;;;;;;8.04;100.00;100389.00;5264329;28;20024;-74
2024/01/01 08:41:23;;;;;;;14.68;2.35;;;;;;;7.98;100.00;100388.78;5266280;28;20027;-75
2024/01/01 08:44:00;;;;;;;14.85;2.47;;;;;;;7.95;100.00;100387.28;5268268;28;20381;-75
2024/01/01 08:46:30;;;;;;;11.90;2.60;;;;;;;8.04;100.00;100397.03;5264885;28;20024;-75
2024/01/01 08:49:01;;;;;;;17.45;2.03;;;;;;;7.86;100.00;100388.25;5265252;28;20050;-75
2024/01/01 08:51:32;;;;;;;12.57;2.13;;;;;;;7.96;100.00;100386.28;5267300;28;20051;-74
2024/01/01 08:54:07;;;;;;;11.40;2.58;;;;;;;8.02;100.00;100388.31;5262253;28;20098;-74
2024/01/01 08:56:37;;;;;;;13.13;2.13;;;;;;;7.98;100.00;100405.69;5267321;28;20014;-75
2024/01/01 08:59:09;;;;;;;11.30;2.83;;;;;;;8.11;100.00;100401.72;5264077;28;20028;-74
2024/01/01 09:01:44;;;;;;;9.95;2.67;;;;;;;8.22;100.00;100407.59;5265780;28;20028;-74
2024/01/01 09:04:14;;;;;;;14.30;2.72;;;;;;;8.17;100.00;100404.56;5269442;28;20024;-75
2024/01/01 09:06:45;;;;;;;14.35;2.13;;;;;;;8.37;100.00;100421.19;5267464;28;20020;-74
2024/01/01 09:09:16;;;;;;;10.80;1.90;;;;;;;8.44;100.00;100416.91;5268585;28;20032;-74
2024/01/01 09:11:47;;;;;;;15.30;2.53;;;;;;;8.42;100.00;100423.38;5270392;28;20032;-74
2024/01/01 09:14:18;;;;;;;25.60;6.45;;;;;;;8.45;100.00;100429.25;5269338;28;20024;-75
2024/01/01 09:16:50;;;;;;;17.88;3.17;;;;;;;8.54;100.00;100435.47;5265612;28;20027;-74
2024/01/01 09:19:20;;;;;;;20.30;2.90;;;;;;;8.50;100.00;100426.09;5267698;28;20024;-74
2024/01/01 09:21:51;;;;;;;12.23;2.58;;;;;;;8.57;100.00;100445.81;5269768;27;20028;-74
2024/01/01 09:24:21;;;;;;;11.70;3.10;;;;;;;8.60;100.00;100442.00;5268266;28;20501;-74
2024/01/01 09:26:52;;;;;;;19.75;3.95;;;;;;;8.55;100.00;100447.84;5265462;28;20043;-74
2024/01/01 09:29:23;;;;;;;22.27;2.72;;;;;;;8.62;100.00;100453.34;5265773;28;20030;-73
2024/01/01 09:31:53;;;;;;;12.63;2.10;;;;;;;8.68;100.00;100447.34;5259622;28;20103;-74
2024/01/01 09:34:24;;;;;;;15.50;2.90;;;;;;;8.68;100.00;100453.53;5266073;28;20084;-74
2024/01/01 09:36:54;;;;;;;22.77;2.40;;;;;;;8.61;100.00;100457.88;5264057;28;20028;-74
2024/01/01 09:39:25;;;;;;;25.92;3.60;;;;;;;8.74;100.00;100460.94;5267975;28;20028;-74
2024/01/01 09:41:55;;;;;;;17.45;2.80;;;;;;;8.82;100.00;100470.78;5262977;28;20102;-74
2024/01/01 09:44:26;;;;;;;16.17;2.50;;;;;;;8.73;100.00;100472.59;5266660;28;20082;-74
2024/01/01 09:46:57;;;;;;;13.15;1.88;;;;;;;8.72;100.00;100470.94;5267253;28;20501;-74
2024/01/01 09:49:27;;;;;;;92.60;37.55;;;;;;;8.85;100.00;100481.19;5262159;28;20027;-74
2024/01/01 09:51:58;;;;;;;6.60;2.50;;;;;;;8.67;100.00;100483.13;5266396;28;20393;-75
2024/01/01 09:54:28;;;;;;;23.15;3.20;;;;;;;8.78;100.00;100480.13;5266579;28;20442;-75
2024/01/01 09:56:59;;;;;;;13.40;2.70;;;;;;;8.92;100.00;100487.53;5266697;28;20042;-74
2024/01/01 09:59:37;;;;;;;15.80;3.17;;;;;;;8.84;100.00;100492.06;5264113;28;20019;-74
2024/01/01 10:02:09;;;;;;;17.50;2.58;;;;;;;8.91;100.00;100495.72;5271574;28;20035;-74
2024/01/01 10:04:39;;;;;;;15.48;2.97;;;;;;;9.01;100.00;100497.25;5266724;27;20024;-74
2024/01/01 10:07:10;;;;;;;23.20;3.50;;;;;;;9.12;100.00;100498.78;5266649;28;20035;-74
2024/01/01 10:09:48;;;;;;;15.80;2.63;;;;;;;9.22;100.00;100499.44;5265500;28;20683;-75
2024/01/01 10:12:21;;;;;;;15.73;2.53;;;;;;;9.19;100.00;100509.66;5265863;28;20028;-74
2024/01/01 10:14:53;;;;;;;25.92;3.50;;;;;;;9.08;100.00;100513.47;5265558;28;20020;-74
2024/01/01 10:17:24;;;;;;;18.95;2.72;;;;;;;9.19;100.00;100513.19;5266047;28;20104;-74
2024/01/01 10:19:59;;;;;;;13.88;2.83;;;;;;;9.15;100.00;100513.69;5265417;28;20016;-74
2024/01/01 10:22:31;;;;;;;25.80;4.85;;;;;;;9.13;100.00;100507.63;5266733;28;20086;-74
2024/01/01 10:25:15;;;;;;;17.35;2.70;;;;;;;9.13;100.00;100513.81;5264928;28;20062;-74
2024/01/01 10:27:47;;;;;;;23.63;3.28;;;;;;;9.20;100.00;100516.69;5264622;28;20111;-74
2024/01/01 10:30:18;;;;;;;19.92;4.57;;;;;;;9.18;100.00;100518.69;5265356;28;20119;-74
2024/01/01 10:32:52;;;;;;;18.63;3.22;;;;;;;9.19;100.00;100526.56;5265550;28;20095;-74
2024/01/01 10:35:23;;;;;;;20.27;3.10;;;;;;;9.21;100.00;100516.53;5269276;28;20081;-73
2024/01/01 10:37:54;;;;;;;13.63;2.88;;;;;;;9.10;100.00;100516.00;5265379;28;20020;-74
2024/01/01 10:40:25;;;;;;;30.15;4.78;;;;;;;9.40;100.00;100523.41;5266127;28;20016;-74
2024/01/01 10:42:57;;;;;;;18.33;4.47;;;;;;;9.47;100.00;100524.41;5266576;28;20027;-73
2024/01/01 10:45:27;;;;;;;17.77;5.15;;;;;;;9.48;100.00;100525.22;5268359;28;20746;-74
2024/01/01 10:48:00;;;;;;;22.63;3.33;;;;;;;9.46;100.00;100520.06;5263252;28;20036;-74
2024/01/01 10:50:31;;;;;;;27.95;4.45;;;;;;;9.41;100.00;100518.88;5267845;28;20484;-74
2024/01/01 10:53:24;;;;;;;22.77;3.38;;;;;;;9.23;100.00;100511.00;5264046;28;20032;-73
2024/01/01 10:56:33;;;;;;;32.58;4.72;;;;;;;9.24;100.00;100516.19;5266527;28;20125;-74
2024/01/01 10:59:20;;;;;;;21.80;4.43;;;;;;;9.27;100.00;100517.69;5261926;28;20032;-74
2024/01/01 11:01:53;;;;;;;20.50;4.00;;;;;;;9.26;100.00;100526.72;5264359;28;20028;-74
2024/01/01 11:04:23;;;;;;;23.42;4.22;;;;;;;9.27;100.00;100518.53;5267267;28;20526;-74
2024/01/01 11:06:54;;;;;;;14.82;3.60;;;;;;;9.20;100.00;100512.19;5264811;28;20044;-74
2024/01/01 11:09:28;;;;;;;23.73;4.35;;;;;;;9.14;100.00;100510.16;5266678;28;20118;-74
2024/01/01 11:12:01;;;;;;;26.98;6.07;;;;;;;9.22;100.00;100512.84;5264551;28;20035;-74
2024/01/01 11:14:34;;;;;;;44.67;6.90;;;;;;;9.26;100.00;100516.84;5263896;28;20020;-74
2024/01/01 11:17:06;;;;;;;20.05;4.30;;;;;;;9.30;100.00;100523.56;5265918;28;20028;-74
2024/01/01 11:19:38;;;;;;;31.75;5.60;;;;;;;9.31;100.00;100524.41;5266350;28;20098;-74
2024/01/01 11:22:18;;;;;;;21.17;4.93;;;;;;;9.29;100.00;100524.56;5266785;28;20386;-75
2024/01/01 11:24:50;;;;;;;29.85;4.68;;;;;;;9.42;100.00;100534.78;5262471;28;20118;-73
2024/01/01 11:27:26;;;;;;;36.53;9.52;;;;;;;9.45;100.00;100526.41;5265529;28;20545;-74
2024/01/01 11:30:00;;;;;;;61.22;22.42;;;;;;;9.49;100.00;100534.97;5263942;28;20058;-74
2024/01/01 11:32:32;;;;;;;32.10;9.40;;;;;;;9.46;100.00;100541.47;5270968;28;20093;-74
2024/01/01 11:35:09;;;;;;;40.90;11.23;;;;;;;9.62;100.00;100542.47;5270551;28;20426;-74
2024/01/01 11:37:42;;;;;;;38.25;8.60;;;;;;;9.54;100.00;100548.69;5270274;28;20103;-74